Verona, Pennsylvania
Current Conditions -  °F | °C
As of 4:53 AM on Saturday 25 Oct 2014 (Local Time) from KAGC Reporting Station
Overcast Overcast  
Wind Chill: 44°   Ceiling: 4600
Heat Index: 48°   Visibility: 10mi
Dew Point: 38°   Wind: 8mph
Humidity: 68%   Direction: 190°S
Pressure: 29.96"   Gusts: NA
Location:  40.51°N, 79.84°W
Report Text: KAGC 250853Z AUTO 19007KT 10SM OVC046 09/03 A2996 RMK AO2 SLP151 T00890033 58011 TSNO
Loading
Personal Weather Stations






























Interactive Weather Map
Tropical Storm Tracking
New forecast layout! Learn more

10-Day Weather Forecast

Advertisements
Track Severe Weather on mobile